Time;durP1;ratioP1;P1;durP2;ratioP2;P2;SDS_P1;SDS_P2;PMS_P1;PMS_P2;Temp;Humidity;BMP_temperature;BMP_pressure;BME280_temperature;BME280_humidity;BME280_pressure;Samples;Min_cycle;Max_cycle;Signal;HPM_P1;HPM_P2
2023/10/28 00:00:45;;;;;;;0.70;0.40;;;;;;;;;;5054800;28;20378;-80
2023/10/28 00:03:11;;;;;;;0.80;0.40;;;;;;;;;;5037185;28;20389;-80
2023/10/28 00:05:37;;;;;;;0.75;0.40;;;;;;;;;;5055065;28;20507;-80
2023/10/28 00:08:04;;;;;;;0.83;0.50;;;;;;;;;;5055361;28;20445;-80
2023/10/28 00:10:31;;;;;;;0.60;0.40;;;;;;;;;;5055333;28;20390;-80
2023/10/28 00:12:58;;;;;;;0.28;0.28;;;;;;;;;;5054922;28;20389;-80
2023/10/28 00:15:24;;;;;;;0.75;0.45;;;;;;;;;;5055702;28;20539;-80
2023/10/28 00:17:50;;;;;;;1.10;0.60;;;;;;;;;;5055593;28;20389;-80
2023/10/28 00:20:21;;;;;;;1.73;0.47;;;;;;;;;;5055220;28;20441;-80
2023/10/28 00:22:48;;;;;;;1.48;0.60;;;;;;;;;;5055414;28;20381;-80
2023/10/28 00:25:15;;;;;;;0.90;0.40;;;;;;;;;;5052511;28;20744;-80
2023/10/28 00:27:41;;;;;;;0.38;0.30;;;;;;;;;;5042843;28;20418;-80
2023/10/28 00:30:08;;;;;;;1.70;0.60;;;;;;;;;;5055373;28;20477;-80
2023/10/28 00:32:34;;;;;;;0.75;0.50;;;;;;;;;;5055074;28;20392;-80
2023/10/28 00:35:00;;;;;;;2.95;0.80;;;;;;;;;;5055464;28;20377;-80
2023/10/28 00:37:27;;;;;;;1.00;0.60;;;;;;;;;;5055012;28;20385;-80
2023/10/28 00:39:53;;;;;;;1.03;0.53;;;;;;;;;;5046187;28;20387;-80
2023/10/28 00:42:20;;;;;;;1.83;0.50;;;;;;;;;;5052990;28;20392;-80
2023/10/28 00:44:46;;;;;;;0.80;0.50;;;;;;;;;;5047220;28;20389;-79
2023/10/28 00:47:12;;;;;;;1.10;0.60;;;;;;;;;;5054827;28;20390;-79
2023/10/28 00:49:39;;;;;;;1.87;0.67;;;;;;;;;;5055698;28;20469;-79
2023/10/28 00:52:05;;;;;;;2.35;0.68;;;;;;;;;;5056237;28;20389;-79
2023/10/28 00:54:31;;;;;;;0.80;0.50;;;;;;;;;;5055366;28;20447;-79
2023/10/28 00:56:58;;;;;;;0.70;0.40;;;;;;;;;;5055586;28;20388;-79
2023/10/28 00:59:27;;;;;;;0.90;0.50;;;;;;;;;;5055864;28;20373;-79
2023/10/28 01:01:53;;;;;;;1.90;0.50;;;;;;;;;;5055812;28;20441;-79
2023/10/28 01:04:19;;;;;;;0.80;0.40;;;;;;;;;;5054615;28;20393;-78
2023/10/28 01:06:46;;;;;;;1.13;0.47;;;;;;;;;;5055527;28;20428;-80
2023/10/28 01:09:12;;;;;;;0.47;0.47;;;;;;;;;;5066824;28;20405;-80
2023/10/28 01:11:41;;;;;;;1.50;0.50;;;;;;;;;;5056158;28;20381;-80
2023/10/28 01:14:07;;;;;;;1.13;0.40;;;;;;;;;;5056085;28;20385;-80
2023/10/28 01:16:34;;;;;;;1.17;0.52;;;;;;;;;;5056087;28;20411;-80
2023/10/28 01:19:00;;;;;;;0.95;0.40;;;;;;;;;;5057475;28;20373;-80
2023/10/28 01:21:27;;;;;;;1.67;0.40;;;;;;;;;;5057438;28;20377;-80
2023/10/28 01:23:54;;;;;;;0.80;0.50;;;;;;;;;;5057039;28;20421;-80
2023/10/28 01:26:20;;;;;;;1.30;0.52;;;;;;;;;;5056735;28;20425;-80
2023/10/28 01:28:46;;;;;;;1.13;0.50;;;;;;;;;;5059297;28;20397;-80
2023/10/28 01:31:12;;;;;;;2.25;0.50;;;;;;;;;;5041131;28;20425;-80
2023/10/28 01:33:38;;;;;;;1.20;0.50;;;;;;;;;;5058444;28;20407;-80
2023/10/28 01:36:05;;;;;;;0.90;0.40;;;;;;;;;;5058980;28;20462;-80
2023/10/28 01:38:31;;;;;;;1.35;0.55;;;;;;;;;;5055489;28;20400;-78
2023/10/28 01:40:57;;;;;;;0.77;0.40;;;;;;;;;;5050938;28;20480;-78
2023/10/28 01:43:23;;;;;;;2.17;0.68;;;;;;;;;;5051112;28;20409;-78
2023/10/28 01:45:49;;;;;;;1.10;0.40;;;;;;;;;;5048091;28;20409;-78
2023/10/28 01:48:15;;;;;;;1.58;0.50;;;;;;;;;;5037048;28;20398;-78
2023/10/28 01:50:41;;;;;;;0.93;0.50;;;;;;;;;;5045745;28;20469;-78
2023/10/28 01:53:07;;;;;;;1.52;0.45;;;;;;;;;;5048361;28;20461;-77
2023/10/28 01:55:34;;;;;;;2.42;0.50;;;;;;;;;;5050798;28;20386;-80
2023/10/28 01:58:01;;;;;;;2.33;0.50;;;;;;;;;;5052756;28;20378;-80
2023/10/28 02:00:30;;;;;;;0.80;0.43;;;;;;;;;;5050584;28;20392;-78
2023/10/28 02:02:56;;;;;;;1.27;0.63;;;;;;;;;;5052774;28;20460;-78
2023/10/28 02:05:22;;;;;;;1.52;0.50;;;;;;;;;;5050294;28;20417;-78
2023/10/28 02:07:48;;;;;;;0.70;0.40;;;;;;;;;;5051041;28;20397;-78
2023/10/28 02:10:14;;;;;;;1.98;0.50;;;;;;;;;;5052085;28;20381;-78
2023/10/28 02:12:40;;;;;;;1.77;0.55;;;;;;;;;;5056072;28;20381;-78
2023/10/28 02:15:08;;;;;;;1.20;0.60;;;;;;;;;;5054776;28;20404;-78
2023/10/28 02:17:35;;;;;;;1.42;0.52;;;;;;;;;;5047654;28;20927;-78
2023/10/28 02:20:02;;;;;;;1.58;0.73;;;;;;;;;;5054443;28;20409;-78
2023/10/28 02:22:28;;;;;;;1.17;0.50;;;;;;;;;;5054306;28;20382;-78
2023/10/28 02:24:54;;;;;;;1.80;0.55;;;;;;;;;;5048352;28;20388;-78
2023/10/28 02:27:20;;;;;;;1.13;0.50;;;;;;;;;;5054478;28;20393;-78
2023/10/28 02:29:46;;;;;;;2.05;0.60;;;;;;;;;;5054493;28;20424;-78
2023/10/28 02:32:13;;;;;;;0.65;0.40;;;;;;;;;;5054665;28;20397;-78
2023/10/28 02:34:41;;;;;;;0.33;0.30;;;;;;;;;;5055621;28;20378;-78
2023/10/28 02:37:07;;;;;;;0.77;0.40;;;;;;;;;;5055372;28;20781;-78
2023/10/28 02:39:33;;;;;;;2.03;0.55;;;;;;;;;;5055369;28;20390;-78
2023/10/28 02:42:00;;;;;;;0.60;0.50;;;;;;;;;;5054894;28;20563;-78
2023/10/28 02:44:26;;;;;;;1.25;0.50;;;;;;;;;;5054790;28;20393;-78
2023/10/28 02:46:54;;;;;;;1.10;0.50;;;;;;;;;;5055133;28;20496;-78
2023/10/28 02:49:20;;;;;;;0.60;0.40;;;;;;;;;;5039417;28;20393;-78
2023/10/28 02:51:45;;;;;;;2.03;0.60;;;;;;;;;;5055469;28;20386;-78
2023/10/28 02:54:13;;;;;;;1.00;0.57;;;;;;;;;;5055914;28;20416;-78
2023/10/28 02:56:39;;;;;;;1.58;0.70;;;;;;;;;;5056400;28;20453;-78
2023/10/28 02:59:06;;;;;;;1.15;0.60;;;;;;;;;;5056462;28;20420;-78
2023/10/28 03:01:36;;;;;;;1.42;0.80;;;;;;;;;;5058068;28;20389;-80
2023/10/28 03:04:03;;;;;;;0.90;0.60;;;;;;;;;;5059595;28;20404;-80
2023/10/28 03:06:29;;;;;;;1.53;0.70;;;;;;;;;;5055155;28;20401;-78
2023/10/28 03:08:55;;;;;;;1.10;0.70;;;;;;;;;;5055255;28;20390;-78
2023/10/28 03:11:21;;;;;;;1.42;0.80;;;;;;;;;;5054996;28;20376;-78
2023/10/28 03:13:47;;;;;;;1.38;0.60;;;;;;;;;;5054767;28;20396;-78
2023/10/28 03:16:13;;;;;;;2.70;0.63;;;;;;;;;;5055244;28;20385;-78
2023/10/28 03:18:39;;;;;;;1.30;0.60;;;;;;;;;;5055097;28;20381;-78
2023/10/28 03:21:06;;;;;;;1.60;0.50;;;;;;;;;;5054623;28;20726;-78
2023/10/28 03:23:32;;;;;;;1.70;1.00;;;;;;;;;;5054531;28;20393;-80
2023/10/28 03:25:58;;;;;;;5.82;3.17;;;;;;;;;;5057785;28;20440;-79
2023/10/28 03:28:24;;;;;;;6.18;2.92;;;;;;;;;;5059283;28;20866;-79
2023/10/28 03:30:50;;;;;;;2.80;1.10;;;;;;;;;;5059030;28;20439;-79
2023/10/28 03:33:16;;;;;;;2.50;1.40;;;;;;;;;;5059139;28;20723;-79
2023/10/28 03:35:42;;;;;;;2.35;1.40;;;;;;;;;;5059505;28;20851;-79
2023/10/28 03:38:09;;;;;;;2.30;1.30;;;;;;;;;;5058675;28;20385;-79
2023/10/28 03:40:35;;;;;;;1.73;1.00;;;;;;;;;;5059048;28;20465;-79
2023/10/28 03:43:01;;;;;;;1.73;1.00;;;;;;;;;;5058710;28;20396;-79
2023/10/28 03:45:28;;;;;;;1.73;0.93;;;;;;;;;;5059561;28;20469;-79
2023/10/28 03:47:54;;;;;;;1.35;0.70;;;;;;;;;;5058635;28;20384;-79
2023/10/28 03:50:20;;;;;;;1.13;0.70;;;;;;;;;;5038985;28;20393;-80
2023/10/28 03:52:46;;;;;;;1.42;0.80;;;;;;;;;;5055505;28;20378;-80
2023/10/28 03:55:12;;;;;;;0.95;0.70;;;;;;;;;;5056831;28;20430;-80
2023/10/28 03:57:38;;;;;;;1.40;0.80;;;;;;;;;;5056860;28;20381;-80
2023/10/28 04:00:10;;;;;;;1.50;0.77;;;;;;;;;;5056665;28;20998;-80
2023/10/28 04:02:36;;;;;;;1.85;1.00;;;;;;;;;;5055064;28;20386;-80
2023/10/28 04:05:03;;;;;;;1.37;0.60;;;;;;;;;;5056633;28;20472;-80
2023/10/28 04:07:29;;;;;;;0.90;0.50;;;;;;;;;;5056375;28;20389;-79
2023/10/28 04:09:55;;;;;;;1.63;0.85;;;;;;;;;;5055819;28;20377;-79
2023/10/28 04:12:22;;;;;;;0.98;0.60;;;;;;;;;;5056503;28;20373;-79
2023/10/28 04:14:48;;;;;;;1.20;0.50;;;;;;;;;;5056328;28;20443;-79
2023/10/28 04:17:14;;;;;;;0.75;0.50;;;;;;;;;;5055734;28;20378;-79
2023/10/28 04:19:40;;;;;;;1.17;0.50;;;;;;;;;;5056256;28;20486;-79
2023/10/28 04:22:06;;;;;;;1.45;0.70;;;;;;;;;;5054884;28;20392;-79
2023/10/28 04:24:32;;;;;;;1.98;0.70;;;;;;;;;;5054611;28;20546;-79
2023/10/28 04:26:59;;;;;;;1.47;0.57;;;;;;;;;;5055495;28;20420;-79
2023/10/28 04:29:25;;;;;;;1.48;0.75;;;;;;;;;;5056361;28;20744;-79
2023/10/28 04:31:51;;;;;;;2.10;1.70;;;;;;;;;;5056206;28;20854;-79
2023/10/28 04:34:17;;;;;;;2.75;1.40;;;;;;;;;;5055673;28;20421;-79
2023/10/28 04:36:43;;;;;;;2.58;1.40;;;;;;;;;;5055086;28;20473;-80
2023/10/28 04:39:09;;;;;;;1.20;1.10;;;;;;;;;;5055699;28;20370;-79
2023/10/28 04:41:35;;;;;;;0.70;0.60;;;;;;;;;;5054236;28;20389;-79
2023/10/28 04:44:01;;;;;;;1.13;0.60;;;;;;;;;;5055872;28;20464;-79
2023/10/28 04:46:27;;;;;;;1.80;0.57;;;;;;;;;;5055369;28;20425;-79
2023/10/28 04:48:55;;;;;;;1.10;0.60;;;;;;;;;;5055778;28;20416;-79
2023/10/28 04:51:21;;;;;;;1.52;0.80;;;;;;;;;;5037834;28;20393;-79
2023/10/28 04:53:47;;;;;;;1.15;0.70;;;;;;;;;;5038026;28;20381;-79
2023/10/28 04:56:13;;;;;;;1.10;0.85;;;;;;;;;;5055583;28;20400;-79
2023/10/28 04:58:39;;;;;;;1.23;0.90;;;;;;;;;;5055753;28;20394;-79
2023/10/28 05:01:05;;;;;;;1.27;0.90;;;;;;;;;;5056002;28;20732;-79
2023/10/28 05:03:31;;;;;;;2.33;1.20;;;;;;;;;;5056299;28;20401;-79
2023/10/28 05:05:58;;;;;;;1.65;1.05;;;;;;;;;;5037379;28;20462;-79
2023/10/28 05:08:24;;;;;;;1.55;0.88;;;;;;;;;;5056495;28;20399;-80
2023/10/28 05:10:50;;;;;;;1.23;0.70;;;;;;;;;;5056093;28;20862;-79
2023/10/28 05:13:16;;;;;;;0.93;0.73;;;;;;;;;;5054533;28;20382;-79
2023/10/28 05:15:41;;;;;;;2.00;0.90;;;;;;;;;;5054794;28;20428;-80
2023/10/28 05:18:07;;;;;;;1.10;0.70;;;;;;;;;;5054673;28;20393;-79
2023/10/28 05:20:34;;;;;;;1.73;1.10;;;;;;;;;;5055481;28;20373;-79
2023/10/28 05:23:00;;;;;;;1.25;0.82;;;;;;;;;;5055493;28;20385;-79
2023/10/28 05:25:25;;;;;;;0.80;0.60;;;;;;;;;;5055606;28;20412;-79
2023/10/28 05:27:51;;;;;;;0.73;0.45;;;;;;;;;;5055034;28;20484;-79
2023/10/28 05:30:17;;;;;;;2.13;0.90;;;;;;;;;;5055388;28;20444;-79
2023/10/28 05:32:43;;;;;;;2.15;0.80;;;;;;;;;;5055441;28;20842;-79
2023/10/28 05:35:11;;;;;;;1.58;0.80;;;;;;;;;;5055171;28;20408;-79
2023/10/28 05:37:37;;;;;;;1.15;0.60;;;;;;;;;;5054562;28;20413;-79
2023/10/28 05:40:03;;;;;;;1.10;0.88;;;;;;;;;;5054841;28;20381;-80
2023/10/28 05:42:29;;;;;;;1.70;0.88;;;;;;;;;;5055272;28;20382;-79
2023/10/28 05:44:55;;;;;;;1.70;0.90;;;;;;;;;;5055083;28;20396;-79
2023/10/28 05:47:21;;;;;;;1.33;0.90;;;;;;;;;;5054144;28;20385;-79
2023/10/28 05:49:47;;;;;;;1.10;0.57;;;;;;;;;;5054759;28;20390;-79
2023/10/28 05:52:18;;;;;;;1.17;0.80;;;;;;;;;;5055055;28;20778;-79
2023/10/28 05:54:44;;;;;;;1.70;0.82;;;;;;;;;;5054292;28;20378;-79
2023/10/28 05:57:10;;;;;;;1.77;0.73;;;;;;;;;;5055023;28;20445;-79
2023/10/28 05:59:36;;;;;;;1.27;0.60;;;;;;;;;;5055166;28;20389;-79
2023/10/28 06:02:03;;;;;;;2.30;0.75;;;;;;;;;;5055126;28;20392;-79
2023/10/28 06:04:31;;;;;;;2.08;0.77;;;;;;;;;;5054606;28;20735;-79
2023/10/28 06:06:57;;;;;;;1.05;0.70;;;;;;;;;;5054919;28;20419;-79
2023/10/28 06:09:23;;;;;;;2.90;0.80;;;;;;;;;;5054670;28;20388;-79
2023/10/28 06:11:54;;;;;;;1.48;0.57;;;;;;;;;;5054809;28;20861;-79
2023/10/28 06:14:21;;;;;;;3.08;0.90;;;;;;;;;;5054176;28;20377;-79
2023/10/28 06:16:49;;;;;;;1.48;0.75;;;;;;;;;;5054470;28;20760;-79
2023/10/28 06:19:15;;;;;;;1.70;0.60;;;;;;;;;;5054938;28;20440;-79
2023/10/28 06:21:41;;;;;;;3.70;0.82;;;;;;;;;;5054693;28;20393;-79
2023/10/28 06:24:07;;;;;;;1.43;0.63;;;;;;;;;;5054436;28;20548;-79
2023/10/28 06:26:33;;;;;;;1.30;0.80;;;;;;;;;;5056660;28;20417;-80
2023/10/28 06:28:59;;;;;;;2.20;0.70;;;;;;;;;;5058418;28;20390;-79
2023/10/28 06:31:26;;;;;;;1.10;0.70;;;;;;;;;;5057633;28;20466;-79
2023/10/28 06:33:52;;;;;;;1.20;0.70;;;;;;;;;;5057982;28;20374;-80
2023/10/28 06:36:18;;;;;;;1.75;0.70;;;;;;;;;;5057879;28;20374;-79
2023/10/28 06:38:45;;;;;;;1.80;0.90;;;;;;;;;;5057831;28;20882;-79
2023/10/28 06:41:11;;;;;;;4.15;0.85;;;;;;;;;;5057741;28;20890;-79
2023/10/28 06:43:37;;;;;;;1.50;0.80;;;;;;;;;;5057945;28;20412;-79
2023/10/28 06:46:04;;;;;;;2.30;0.80;;;;;;;;;;5057777;28;20448;-79
2023/10/28 06:48:30;;;;;;;1.38;0.90;;;;;;;;;;5057553;28;20389;-80
2023/10/28 06:50:56;;;;;;;1.75;0.90;;;;;;;;;;5057273;28;20417;-79
2023/10/28 06:53:23;;;;;;;1.37;0.83;;;;;;;;;;5057229;28;20479;-79
2023/10/28 06:55:49;;;;;;;2.88;1.00;;;;;;;;;;5039461;28;20393;-79
2023/10/28 06:58:15;;;;;;;1.38;0.50;;;;;;;;;;5058222;28;20393;-79
2023/10/28 07:00:41;;;;;;;1.57;0.80;;;;;;;;;;5057261;28;20381;-79
2023/10/28 07:03:07;;;;;;;1.63;0.80;;;;;;;;;;5057373;28;20432;-79
2023/10/28 07:05:34;;;;;;;2.75;0.70;;;;;;;;;;5057321;28;20409;-79
2023/10/28 07:08:00;;;;;;;2.15;0.90;;;;;;;;;;5057237;28;20389;-79
2023/10/28 07:10:27;;;;;;;3.28;1.15;;;;;;;;;;5057605;28;20382;-80
2023/10/28 07:12:53;;;;;;;1.67;0.70;;;;;;;;;;5057245;28;20386;-79
2023/10/28 07:15:19;;;;;;;1.70;0.70;;;;;;;;;;5057827;28;20443;-79
2023/10/28 07:17:45;;;;;;;1.30;0.70;;;;;;;;;;5057575;28;20739;-79
2023/10/28 07:20:11;;;;;;;1.65;0.80;;;;;;;;;;5056956;28;20484;-80
2023/10/28 07:22:37;;;;;;;1.40;0.60;;;;;;;;;;5056656;28;20507;-80
2023/10/28 07:25:04;;;;;;;2.10;0.80;;;;;;;;;;5057394;28;20382;-80
2023/10/28 07:27:31;;;;;;;1.38;0.70;;;;;;;;;;5057112;28;20461;-80
2023/10/28 07:29:59;;;;;;;2.10;0.70;;;;;;;;;;5057150;28;20433;-79
2023/10/28 07:32:25;;;;;;;2.28;0.80;;;;;;;;;;5057268;28;20396;-79
2023/10/28 07:34:51;;;;;;;1.08;0.82;;;;;;;;;;5057076;28;20385;-80
2023/10/28 07:37:17;;;;;;;1.70;0.98;;;;;;;;;;5056894;28;20420;-80
2023/10/28 07:39:44;;;;;;;1.55;1.00;;;;;;;;;;5057099;28;20839;-80
2023/10/28 07:42:10;;;;;;;1.33;0.88;;;;;;;;;;5056506;28;20739;-80
2023/10/28 07:44:37;;;;;;;1.20;1.10;;;;;;;;;;5056870;28;20381;-80
2023/10/28 07:47:03;;;;;;;2.40;0.90;;;;;;;;;;5056275;28;20421;-79
2023/10/28 07:49:29;;;;;;;2.10;0.90;;;;;;;;;;5056893;28;20386;-79
2023/10/28 07:51:55;;;;;;;3.05;1.00;;;;;;;;;;5056581;28;20481;-80
2023/10/28 07:54:21;;;;;;;1.40;1.00;;;;;;;;;;5057114;28;20405;-79
2023/10/28 07:56:47;;;;;;;2.55;0.80;;;;;;;;;;5056067;28;20889;-80
2023/10/28 07:59:13;;;;;;;1.55;0.80;;;;;;;;;;5056713;28;20393;-80
2023/10/28 08:01:39;;;;;;;1.38;0.60;;;;;;;;;;5056496;28;20373;-79
2023/10/28 08:04:06;;;;;;;1.23;0.57;;;;;;;;;;5056312;28;20392;-79
2023/10/28 08:06:32;;;;;;;1.08;0.68;;;;;;;;;;5055956;28;20432;-79
2023/10/28 08:08:58;;;;;;;1.50;0.60;;;;;;;;;;5057683;28;20386;-80
2023/10/28 08:11:24;;;;;;;1.27;0.73;;;;;;;;;;5061463;28;20377;-80
2023/10/28 08:13:54;;;;;;;1.27;0.68;;;;;;;;;;5057850;28;20377;-80
2023/10/28 08:16:21;;;;;;;1.27;0.50;;;;;;;;;;5056223;28;20383;-80
2023/10/28 08:18:47;;;;;;;1.30;0.60;;;;;;;;;;5056544;28;20427;-79
2023/10/28 08:21:24;;;;;;;2.80;0.60;;;;;;;;;;5056944;28;20431;-79
2023/10/28 08:23:50;;;;;;;2.20;0.80;;;;;;;;;;5054326;28;20382;-79
2023/10/28 08:26:18;;;;;;;1.10;0.57;;;;;;;;;;5053517;28;20417;-79
2023/10/28 08:28:46;;;;;;;1.63;0.70;;;;;;;;;;5055036;28;20773;-79
2023/10/28 08:31:12;;;;;;;1.40;0.70;;;;;;;;;;5053890;28;20381;-79
2023/10/28 08:33:41;;;;;;;3.03;0.90;;;;;;;;;;5054301;28;20381;-79
2023/10/28 08:36:07;;;;;;;1.88;0.80;;;;;;;;;;5054047;28;20392;-79
2023/10/28 08:38:34;;;;;;;2.45;0.70;;;;;;;;;;5053469;28;20381;-79
2023/10/28 08:41:00;;;;;;;5.13;1.40;;;;;;;;;;5054063;28;20866;-79
2023/10/28 08:43:27;;;;;;;3.22;1.00;;;;;;;;;;5053540;28;20385;-79
2023/10/28 08:45:54;;;;;;;4.03;1.90;;;;;;;;;;5054058;28;20450;-79
2023/10/28 08:48:21;;;;;;;4.13;2.00;;;;;;;;;;5053547;28;20396;-79
2023/10/28 08:50:50;;;;;;;3.95;1.20;;;;;;;;;;5054294;28;20401;-79
2023/10/28 08:53:16;;;;;;;2.60;1.00;;;;;;;;;;5054394;28;20390;-79
2023/10/28 08:55:43;;;;;;;1.88;1.10;;;;;;;;;;5053731;28;20498;-79
2023/10/28 08:58:09;;;;;;;3.20;0.80;;;;;;;;;;5053690;28;20386;-79
2023/10/28 09:00:36;;;;;;;2.00;0.80;;;;;;;;;;5053454;28;20385;-79
2023/10/28 09:03:04;;;;;;;2.08;0.60;;;;;;;;;;5054139;28;20393;-79
2023/10/28 09:05:30;;;;;;;1.67;0.70;;;;;;;;;;5054068;28;20503;-79
2023/10/28 09:07:56;;;;;;;2.03;0.63;;;;;;;;;;5054103;28;20401;-79
2023/10/28 09:10:23;;;;;;;1.33;0.80;;;;;;;;;;5053843;28;20389;-79
2023/10/28 09:12:50;;;;;;;1.85;0.68;;;;;;;;;;5053997;28;20447;-78
2023/10/28 09:15:17;;;;;;;1.73;0.57;;;;;;;;;;5053980;28;20857;-80
2023/10/28 09:17:43;;;;;;;3.23;0.90;;;;;;;;;;5053187;28;20389;-78
2023/10/28 09:20:09;;;;;;;2.42;0.80;;;;;;;;;;5054668;28;20447;-80
2023/10/28 09:22:42;;;;;;;1.63;0.70;;;;;;;;;;5054025;28;20392;-80
2023/10/28 09:25:11;;;;;;;1.15;0.60;;;;;;;;;;5048658;28;20385;-80
2023/10/28 09:27:38;;;;;;;1.92;0.77;;;;;;;;;;5057225;28;20381;-80
2023/10/28 09:30:08;;;;;;;1.58;0.70;;;;;;;;;;5055234;28;20389;-79
2023/10/28 09:32:35;;;;;;;0.95;0.50;;;;;;;;;;5055438;28;20389;-79
2023/10/28 09:35:05;;;;;;;1.40;0.70;;;;;;;;;;5055366;28;20719;-79
2023/10/28 09:37:34;;;;;;;2.47;0.80;;;;;;;;;;5055470;28;20752;-79
2023/10/28 09:40:00;;;;;;;2.10;0.60;;;;;;;;;;5055332;28;20414;-80
2023/10/28 09:42:29;;;;;;;1.38;0.43;;;;;;;;;;5054854;28;20514;-80
2023/10/28 09:44:55;;;;;;;2.50;0.63;;;;;;;;;;5054514;28;20381;-80
2023/10/28 09:47:22;;;;;;;3.80;0.75;;;;;;;;;;5055105;28;20743;-79
2023/10/28 09:49:53;;;;;;;1.70;0.65;;;;;;;;;;5055125;28;20378;-80
2023/10/28 09:52:19;;;;;;;2.07;0.80;;;;;;;;;;5053998;28;20435;-80
2023/10/28 09:54:49;;;;;;;1.97;0.60;;;;;;;;;;5054664;28;20396;-80
2023/10/28 09:57:15;;;;;;;1.65;0.60;;;;;;;;;;5054234;28;20500;-80
2023/10/28 09:59:44;;;;;;;1.20;0.60;;;;;;;;;;5055609;28;20386;-79
2023/10/28 10:02:11;;;;;;;1.25;0.68;;;;;;;;;;5057519;28;20430;-79
2023/10/28 10:04:53;;;;;;;2.58;0.80;;;;;;;;;;5058064;28;20396;-80
2023/10/28 10:07:19;;;;;;;1.67;0.73;;;;;;;;;;5057980;28;20887;-79
2023/10/28 10:09:49;;;;;;;1.75;0.60;;;;;;;;;;5058228;28;20393;-79
2023/10/28 10:12:15;;;;;;;2.80;1.00;;;;;;;;;;5058158;28;20385;-79
2023/10/28 10:14:45;;;;;;;3.28;0.75;;;;;;;;;;5057466;28;20385;-79
2023/10/28 10:17:24;;;;;;;2.45;0.77;;;;;;;;;;5057788;28;20384;-79
2023/10/28 10:19:50;;;;;;;2.47;0.73;;;;;;;;;;5057747;28;20381;-79
2023/10/28 10:22:18;;;;;;;2.33;0.63;;;;;;;;;;5056824;28;20382;-79
2023/10/28 10:24:51;;;;;;;1.52;0.57;;;;;;;;;;5057879;28;20704;-79
2023/10/28 10:27:32;;;;;;;1.60;0.80;;;;;;;;;;5058668;28;20487;-79
2023/10/28 10:30:03;;;;;;;1.50;0.60;;;;;;;;;;5058171;28;20393;-79
2023/10/28 10:32:29;;;;;;;1.57;0.70;;;;;;;;;;5057505;28;20411;-79
2023/10/28 10:34:55;;;;;;;2.22;0.70;;;;;;;;;;5057443;28;20389;-80
2023/10/28 10:37:25;;;;;;;1.70;0.60;;;;;;;;;;5057359;28;20381;-80
2023/10/28 10:39:51;;;;;;;2.28;0.70;;;;;;;;;;5056978;28;20386;-80
2023/10/28 10:42:17;;;;;;;1.53;0.70;;;;;;;;;;5057012;28;20387;-80
2023/10/28 10:44:43;;;;;;;1.48;0.70;;;;;;;;;;5057211;28;20865;-80
2023/10/28 10:47:10;;;;;;;1.67;0.70;;;;;;;;;;5057636;28;20452;-80
2023/10/28 10:49:40;;;;;;;1.40;0.70;;;;;;;;;;5057806;28;20749;-80
2023/10/28 10:52:08;;;;;;;2.78;0.90;;;;;;;;;;5057405;28;20374;-80
2023/10/28 10:54:40;;;;;;;2.90;0.80;;;;;;;;;;5057774;28;20421;-80
2023/10/28 10:57:06;;;;;;;2.03;0.80;;;;;;;;;;5056698;28;20385;-80
2023/10/28 10:59:38;;;;;;;1.70;0.75;;;;;;;;;;5056331;28;20397;-81
2023/10/28 11:02:04;;;;;;;4.30;0.98;;;;;;;;;;5057000;28;20870;-80
2023/10/28 11:04:31;;;;;;;1.42;0.70;;;;;;;;;;5056889;28;20389;-81
2023/10/28 11:06:57;;;;;;;2.85;0.98;;;;;;;;;;5056906;28;20440;-80
2023/10/28 11:09:23;;;;;;;2.10;0.80;;;;;;;;;;5057707;28;20378;-80
2023/10/28 11:11:49;;;;;;;2.40;0.93;;;;;;;;;;5056327;28;20435;-80
2023/10/28 11:14:16;;;;;;;2.53;0.80;;;;;;;;;;5056294;28;20381;-80
2023/10/28 11:16:42;;;;;;;2.22;0.95;;;;;;;;;;5057495;28;20468;-80
2023/10/28 11:19:09;;;;;;;2.45;1.00;;;;;;;;;;5059044;28;20397;-80
2023/10/28 11:21:36;;;;;;;2.47;0.95;;;;;;;;;;5062068;28;20378;-80
2023/10/28 11:24:03;;;;;;;3.17;0.60;;;;;;;;;;5062793;28;20404;-79
2023/10/28 11:26:29;;;;;;;2.55;0.70;;;;;;;;;;5061392;28;20414;-80
2023/10/28 11:28:59;;;;;;;2.80;0.70;;;;;;;;;;5057055;28;20409;-80
2023/10/28 11:31:26;;;;;;;1.67;0.80;;;;;;;;;;5055801;28;20386;-80
2023/10/28 11:33:52;;;;;;;2.20;0.85;;;;;;;;;;5055448;28;20708;-80
2023/10/28 11:36:18;;;;;;;1.50;0.70;;;;;;;;;;5055292;28;20473;-80
2023/10/28 11:38:44;;;;;;;2.92;0.82;;;;;;;;;;5054994;28;20395;-80
2023/10/28 11:41:11;;;;;;;1.97;0.97;;;;;;;;;;5055475;28;20427;-80
2023/10/28 11:43:37;;;;;;;3.33;1.02;;;;;;;;;;5055450;28;20377;-80
2023/10/28 11:46:04;;;;;;;2.53;0.82;;;;;;;;;;5055388;28;20448;-79
2023/10/28 11:48:33;;;;;;;2.97;0.82;;;;;;;;;;5055245;28;20443;-80
2023/10/28 11:51:00;;;;;;;1.60;0.68;;;;;;;;;;5054804;28;20464;-80
2023/10/28 11:53:26;;;;;;;2.63;1.20;;;;;;;;;;5055264;28;20417;-81
2023/10/28 11:55:52;;;;;;;2.23;0.70;;;;;;;;;;5055072;28;20420;-80
2023/10/28 11:58:19;;;;;;;2.97;1.05;;;;;;;;;;5054303;28;20474;-79
2023/10/28 12:00:50;;;;;;;2.92;0.93;;;;;;;;;;5055326;28;20377;-80
2023/10/28 12:03:16;;;;;;;1.23;0.82;;;;;;;;;;5054430;28;20382;-80
2023/10/28 12:05:42;;;;;;;2.88;1.00;;;;;;;;;;5053367;28;20417;-79
2023/10/28 12:08:11;;;;;;;2.42;0.90;;;;;;;;;;5053667;28;20451;-80
2023/10/28 12:10:43;;;;;;;2.00;0.90;;;;;;;;;;5054928;28;20382;-79
2023/10/28 12:13:08;;;;;;;2.80;0.90;;;;;;;;;;5051460;28;20441;-79
2023/10/28 12:15:34;;;;;;;2.50;0.82;;;;;;;;;;5048611;28;20386;-79
2023/10/28 12:18:01;;;;;;;2.30;0.90;;;;;;;;;;5054228;28;20382;-79
2023/10/28 12:20:27;;;;;;;2.63;0.80;;;;;;;;;;5054562;28;20801;-82
2023/10/28 12:22:53;;;;;;;2.28;0.70;;;;;;;;;;5053236;28;20390;-81
2023/10/28 12:25:19;;;;;;;1.83;0.80;;;;;;;;;;5048562;28;20455;-81
2023/10/28 12:27:45;;;;;;;2.60;0.80;;;;;;;;;;5033188;28;20392;-81
2023/10/28 12:30:11;;;;;;;1.77;0.70;;;;;;;;;;5047681;28;20396;-79
2023/10/28 12:32:37;;;;;;;3.20;0.90;;;;;;;;;;5040235;28;20970;-79
2023/10/28 12:35:03;;;;;;;2.07;0.77;;;;;;;;;;5053407;28;20897;-81
2023/10/28 12:37:29;;;;;;;3.42;0.80;;;;;;;;;;5054144;28;20851;-81
2023/10/28 12:39:55;;;;;;;1.88;0.77;;;;;;;;;;5055725;28;20400;-80
2023/10/28 12:42:21;;;;;;;2.40;1.10;;;;;;;;;;5055560;28;20377;-79
2023/10/28 12:44:53;;;;;;;2.40;0.90;;;;;;;;;;5141746;27;20375;-81
2023/10/28 12:47:19;;;;;;;3.03;0.95;;;;;;;;;;5133016;28;20371;-81
2023/10/28 12:49:46;;;;;;;2.03;0.95;;;;;;;;;;5111616;28;20779;-80
2023/10/28 12:52:13;;;;;;;1.60;0.80;;;;;;;;;;5112182;28;20769;-80
2023/10/28 12:54:39;;;;;;;2.13;0.88;;;;;;;;;;5132051;28;20371;-81
2023/10/28 12:57:07;;;;;;;2.30;0.93;;;;;;;;;;5130092;28;20383;-81
2023/10/28 12:59:34;;;;;;;3.50;0.80;;;;;;;;;;5129960;28;20867;-80
2023/10/28 13:02:00;;;;;;;1.80;0.60;;;;;;;;;;5130295;28;20444;-80
2023/10/28 13:04:26;;;;;;;2.08;0.80;;;;;;;;;;5131029;28;20434;-80
2023/10/28 13:06:52;;;;;;;3.20;0.88;;;;;;;;;;5131878;28;20693;-80
2023/10/28 13:09:18;;;;;;;1.52;0.70;;;;;;;;;;5132137;28;20380;-81
2023/10/28 13:11:44;;;;;;;2.42;0.90;;;;;;;;;;5132697;28;20380;-81
2023/10/28 13:14:11;;;;;;;1.40;0.67;;;;;;;;;;5132849;28;20367;-81
2023/10/28 13:16:37;;;;;;;0.80;0.60;;;;;;;;;;5120086;28;20380;-81
2023/10/28 13:19:04;;;;;;;1.93;0.90;;;;;;;;;;5132828;28;20387;-81
2023/10/28 13:21:30;;;;;;;1.45;0.88;;;;;;;;;;5131804;28;20387;-81
2023/10/28 13:23:57;;;;;;;1.42;0.60;;;;;;;;;;5125990;28;20794;-81
2023/10/28 13:26:23;;;;;;;1.75;0.70;;;;;;;;;;5130404;28;20408;-81
2023/10/28 13:28:50;;;;;;;3.42;1.08;;;;;;;;;;5128207;28;20376;-81
2023/10/28 13:31:16;;;;;;;2.28;0.88;;;;;;;;;;5132070;28;20472;-81
2023/10/28 13:33:42;;;;;;;2.72;0.80;;;;;;;;;;5132024;28;20375;-81
2023/10/28 13:36:08;;;;;;;1.65;0.70;;;;;;;;;;5133037;28;20429;-81
2023/10/28 13:38:35;;;;;;;1.75;0.90;;;;;;;;;;5132266;28;20379;-81
2023/10/28 13:41:01;;;;;;;1.80;0.98;;;;;;;;;;5107798;28;20385;-81
2023/10/28 13:43:28;;;;;;;2.83;1.07;;;;;;;;;;5124902;28;20414;-81
2023/10/28 13:45:53;;;;;;;2.95;1.10;;;;;;;;;;5130731;28;20435;-81
2023/10/28 13:48:20;;;;;;;2.47;0.82;;;;;;;;;;5127098;28;20372;-81
2023/10/28 13:50:46;;;;;;;1.80;0.90;;;;;;;;;;5113331;28;20415;-81
2023/10/28 13:53:12;;;;;;;1.52;0.80;;;;;;;;;;5122481;28;20388;-81
2023/10/28 13:55:38;;;;;;;2.00;0.80;;;;;;;;;;5107810;28;20418;-81
2023/10/28 13:58:04;;;;;;;2.80;0.73;;;;;;;;;;5114714;28;20465;-80
2023/10/28 14:00:30;;;;;;;2.50;0.90;;;;;;;;;;5111687;28;20400;-81
2023/10/28 14:02:57;;;;;;;2.85;1.00;;;;;;;;;;5117491;28;20440;-81
2023/10/28 14:05:23;;;;;;;2.30;0.90;;;;;;;;;;5117632;28;20733;-81
2023/10/28 14:07:49;;;;;;;1.55;0.85;;;;;;;;;;5116163;28;20385;-81
2023/10/28 14:10:15;;;;;;;2.58;1.42;;;;;;;;;;5117188;28;20403;-80
2023/10/28 14:12:41;;;;;;;3.22;1.50;;;;;;;;;;5106769;28;20835;-80
2023/10/28 14:15:12;;;;;;;2.17;1.00;;;;;;;;;;5117140;28;20384;-81
2023/10/28 14:17:39;;;;;;;2.53;1.33;;;;;;;;;;5115664;28;20379;-81
2023/10/28 14:20:05;;;;;;;1.98;1.08;;;;;;;;;;5110007;28;20414;-80
2023/10/28 14:22:31;;;;;;;4.28;1.63;;;;;;;;;;5100073;28;20378;-81
2023/10/28 14:24:57;;;;;;;2.67;1.50;;;;;;;;;;5116914;28;20396;-81
2023/10/28 14:27:23;;;;;;;2.70;1.10;;;;;;;;;;5116800;28;20447;-82
2023/10/28 14:29:49;;;;;;;1.88;0.90;;;;;;;;;;5115651;28;20463;-80
2023/10/28 14:32:16;;;;;;;1.95;0.93;;;;;;;;;;5109859;28;20381;-80
2023/10/28 14:34:43;;;;;;;2.00;0.90;;;;;;;;;;5117233;28;20369;-80
2023/10/28 14:37:09;;;;;;;3.17;1.10;;;;;;;;;;5117220;28;20388;-80
2023/10/28 14:39:36;;;;;;;2.78;1.30;;;;;;;;;;5115895;28;20483;-81